createdAt,value
2023-12-23T00:00:27.845Z,1001.83
2023-12-23T00:01:27.829Z,1001.78
2023-12-23T00:02:27.827Z,1001.75
2023-12-23T00:03:27.824Z,1001.78
2023-12-23T00:04:27.843Z,1001.75
2023-12-23T00:05:27.951Z,1001.71
2023-12-23T00:06:27.774Z,1001.67
2023-12-23T00:07:27.756Z,1001.68
2023-12-23T00:08:30.410Z,1001.68
2023-12-23T00:09:27.844Z,1001.70
2023-12-23T00:10:27.852Z,1001.74
2023-12-23T00:11:27.795Z,1001.76
2023-12-23T00:12:27.800Z,1001.79
2023-12-23T00:13:27.722Z,1001.82
2023-12-23T00:14:27.696Z,1001.82
2023-12-23T00:15:27.675Z,1001.79
2023-12-23T00:16:27.749Z,1001.81
2023-12-23T00:17:27.954Z,1001.84
2023-12-23T00:18:27.923Z,1001.89
2023-12-23T00:19:27.777Z,1001.89
2023-12-23T00:20:27.660Z,1001.90
2023-12-23T00:21:27.725Z,1001.91
2023-12-23T00:22:27.611Z,1001.94
2023-12-23T00:23:27.683Z,1001.90
2023-12-23T00:24:27.619Z,1001.94
2023-12-23T00:25:27.613Z,1001.99
2023-12-23T00:26:27.564Z,1002.00
2023-12-23T00:27:27.582Z,1001.98
2023-12-23T00:28:27.602Z,1002.01
2023-12-23T00:29:27.524Z,1002.01
2023-12-23T00:30:27.605Z,1001.97
2023-12-23T00:31:27.505Z,1002.00
2023-12-23T00:32:27.553Z,1002.01
2023-12-23T00:33:27.535Z,1001.98
2023-12-23T00:34:27.558Z,1002.02
2023-12-23T00:35:27.488Z,1002.01
2023-12-23T00:36:27.461Z,1001.97
2023-12-23T00:37:27.446Z,1001.93
2023-12-23T00:38:27.464Z,1001.96
2023-12-23T00:39:27.424Z,1001.85
2023-12-23T00:40:27.518Z,1001.87
2023-12-23T00:41:27.403Z,1001.86
2023-12-23T00:42:27.485Z,1001.87
2023-12-23T00:43:27.384Z,1001.94
2023-12-23T00:44:27.481Z,1001.97
2023-12-23T00:45:27.361Z,1001.94
2023-12-23T00:46:27.363Z,1001.95
2023-12-23T00:47:31.116Z,1001.81
2023-12-23T00:48:28.409Z,1001.89
2023-12-23T00:49:27.459Z,1001.92
2023-12-23T00:50:27.312Z,1001.88
2023-12-23T00:51:27.397Z,1001.92
2023-12-23T00:52:27.419Z,1001.90
2023-12-23T00:53:27.286Z,1001.87
2023-12-23T00:54:29.166Z,1001.88
2023-12-23T00:55:27.356Z,1001.78
2023-12-23T00:56:27.329Z,1001.76
2023-12-23T00:57:27.238Z,1001.88
2023-12-23T00:58:27.223Z,1001.82
2023-12-23T00:59:27.213Z,1001.82
2023-12-23T01:00:27.257Z,1001.91
2023-12-23T01:01:27.233Z,1001.81
2023-12-23T01:02:27.244Z,1001.88
2023-12-23T01:03:27.200Z,1001.86
2023-12-23T01:04:27.155Z,1001.94
2023-12-23T01:05:27.146Z,1001.96
2023-12-23T01:06:27.220Z,1002.00
2023-12-23T01:07:27.143Z,1001.96
2023-12-23T01:08:27.309Z,1002.01
2023-12-23T01:09:27.117Z,1001.95
2023-12-23T01:10:27.094Z,1001.98
2023-12-23T01:11:27.143Z,1001.91
2023-12-23T01:12:27.225Z,1001.93
2023-12-23T01:13:27.076Z,1001.89
2023-12-23T01:14:27.054Z,1001.93
2023-12-23T01:15:27.042Z,1001.87
2023-12-23T01:16:27.035Z,1001.94
2023-12-23T01:17:27.044Z,1001.91
2023-12-23T01:18:27.196Z,1001.86
2023-12-23T01:19:26.998Z,1001.86
2023-12-23T01:20:27.040Z,1001.95
2023-12-23T01:21:27.002Z,1001.93
2023-12-23T01:22:27.028Z,1001.99
2023-12-23T01:23:27.079Z,1001.98
2023-12-23T01:24:26.976Z,1002.02
2023-12-23T01:25:27.022Z,1002.00
2023-12-23T01:26:26.930Z,1002.04
2023-12-23T01:27:35.604Z,1002.05
2023-12-23T01:28:26.903Z,1001.97
2023-12-23T01:29:26.889Z,1002.02
2023-12-23T01:30:26.905Z,1001.97
2023-12-23T01:31:26.865Z,1001.94
2023-12-23T01:32:27.016Z,1001.90
2023-12-23T01:33:27.034Z,1001.84
2023-12-23T01:34:26.854Z,1001.88
2023-12-23T01:35:26.878Z,1001.87
2023-12-23T01:36:26.975Z,1001.85
2023-12-23T01:37:26.927Z,1001.81
2023-12-23T01:38:26.845Z,1001.89
2023-12-23T01:39:26.915Z,1001.88
2023-12-23T01:40:26.790Z,1001.95
2023-12-23T01:41:26.810Z,1001.93
2023-12-23T01:42:26.784Z,1001.98
2023-12-23T01:43:26.921Z,1001.95
2023-12-23T01:44:26.741Z,1001.92
2023-12-23T01:45:26.741Z,1001.98
2023-12-23T01:46:26.729Z,1002.01
2023-12-23T01:47:26.808Z,1001.98
2023-12-23T01:48:26.906Z,1002.00
2023-12-23T01:49:26.674Z,1002.01
2023-12-23T01:50:26.735Z,1002.05
2023-12-23T01:51:26.672Z,1001.99
2023-12-23T01:52:26.737Z,1001.97
2023-12-23T01:53:26.631Z,1001.96
2023-12-23T01:54:26.637Z,1001.96
2023-12-23T01:55:26.623Z,1001.87
2023-12-23T01:56:26.617Z,1001.88
2023-12-23T01:57:26.598Z,1001.94
2023-12-23T01:58:26.623Z,1001.98
2023-12-23T01:59:26.628Z,1001.93
2023-12-23T02:00:26.647Z,1002.02
2023-12-23T02:01:26.634Z,1001.95
2023-12-23T02:02:26.815Z,1001.97
2023-12-23T02:03:26.582Z,1001.99
2023-12-23T02:04:26.518Z,1001.92
2023-12-23T02:05:26.547Z,1001.95
2023-12-23T02:06:26.500Z,1001.87
2023-12-23T02:07:26.489Z,1001.87
2023-12-23T02:08:26.545Z,1001.94
2023-12-23T02:09:26.470Z,1001.93
2023-12-23T02:10:26.470Z,1001.91
2023-12-23T02:11:27.496Z,1001.90
2023-12-23T02:12:26.505Z,1001.91
2023-12-23T02:13:26.431Z,1001.92
2023-12-23T02:14:26.420Z,1001.94
2023-12-23T02:15:26.415Z,1001.86
2023-12-23T02:16:26.418Z,1001.92
2023-12-23T02:17:26.570Z,1001.90
2023-12-23T02:18:28.638Z,1001.86
2023-12-23T02:19:26.363Z,1001.87
2023-12-23T02:20:26.348Z,1001.82
2023-12-23T02:21:26.346Z,1001.76
2023-12-23T02:22:26.330Z,1001.73
2023-12-23T02:23:26.459Z,1001.76
2023-12-23T02:24:26.319Z,1001.74
2023-12-23T02:25:26.299Z,1001.77
2023-12-23T02:26:26.368Z,1001.72
2023-12-23T02:27:26.349Z,1001.68
2023-12-23T02:28:26.286Z,1001.69
2023-12-23T02:29:26.345Z,1001.65
2023-12-23T02:30:26.290Z,1001.66
2023-12-23T02:31:26.264Z,1001.57
2023-12-23T02:32:26.271Z,1001.61
2023-12-23T02:33:26.286Z,1001.54
2023-12-23T02:34:26.201Z,1001.52
2023-12-23T02:35:26.300Z,1001.50
2023-12-23T02:36:26.193Z,1001.50
2023-12-23T02:37:26.295Z,1001.50
2023-12-23T02:38:26.166Z,1001.43
2023-12-23T02:39:26.173Z,1001.39
2023-12-23T02:40:26.208Z,1001.43
2023-12-23T02:41:26.172Z,1001.43
2023-12-23T02:42:26.138Z,1001.42
2023-12-23T02:43:26.238Z,1001.38
2023-12-23T02:44:26.154Z,1001.37
2023-12-23T02:45:27.793Z,1001.36
2023-12-23T02:46:26.262Z,1001.36
2023-12-23T02:47:26.104Z,1001.38
2023-12-23T02:48:26.092Z,1001.42
2023-12-23T02:49:26.127Z,1001.41
2023-12-23T02:50:26.234Z,1001.41
2023-12-23T02:51:26.032Z,1001.42
2023-12-23T02:52:26.108Z,1001.32
2023-12-23T02:53:26.075Z,1001.34
2023-12-23T02:54:25.988Z,1001.27
2023-12-23T02:55:25.987Z,1001.17
2023-12-23T02:56:26.018Z,1001.23
2023-12-23T02:57:26.071Z,1001.05
2023-12-23T02:58:26.033Z,1001.08
2023-12-23T02:59:26.055Z,1001.01
2023-12-23T03:00:25.963Z,1000.95
2023-12-23T03:01:25.994Z,1000.94
2023-12-23T03:02:25.978Z,1000.95
2023-12-23T03:03:25.965Z,1000.95
2023-12-23T03:04:25.893Z,1000.98
2023-12-23T03:05:26.114Z,1000.90
2023-12-23T03:06:25.858Z,1000.86
2023-12-23T03:07:25.934Z,1000.88
2023-12-23T03:08:25.845Z,1000.87
2023-12-23T03:09:25.828Z,1000.87
2023-12-23T03:10:25.833Z,1000.86
2023-12-23T03:11:25.845Z,1000.92
2023-12-23T03:12:25.905Z,1000.92
2023-12-23T03:13:25.780Z,1000.89
2023-12-23T03:14:25.883Z,1000.87
2023-12-23T03:15:25.774Z,1000.83
2023-12-23T03:16:25.931Z,1000.74
2023-12-23T03:17:25.739Z,1000.70
2023-12-23T03:18:25.816Z,1000.69
2023-12-23T03:19:25.723Z,1000.67
2023-12-23T03:20:25.752Z,1000.74
2023-12-23T03:21:25.710Z,1000.73
2023-12-23T03:22:25.740Z,1000.69
2023-12-23T03:23:25.759Z,1000.68
2023-12-23T03:24:25.656Z,1000.65
2023-12-23T03:25:25.671Z,1000.64
2023-12-23T03:26:25.651Z,1000.59
2023-12-23T03:27:25.689Z,1000.65
2023-12-23T03:28:25.619Z,1000.59
2023-12-23T03:29:25.648Z,1000.66
2023-12-23T03:30:25.645Z,1000.68
2023-12-23T03:31:25.599Z,1000.57
2023-12-23T03:32:25.693Z,1000.55
2023-12-23T03:33:25.898Z,1000.50
2023-12-23T03:34:25.628Z,1000.45
2023-12-23T03:35:25.629Z,1000.44
2023-12-23T03:36:25.541Z,1000.39
2023-12-23T03:37:25.532Z,1000.36
2023-12-23T03:38:25.515Z,1000.30
2023-12-23T03:39:25.532Z,1000.33
2023-12-23T03:40:25.522Z,1000.26
2023-12-23T03:41:25.484Z,1000.25
2023-12-23T03:42:25.483Z,1000.21
2023-12-23T03:43:25.469Z,1000.16
2023-12-23T03:44:25.489Z,1000.13
2023-12-23T03:45:25.534Z,1000.14
2023-12-23T03:46:25.429Z,1000.09
2023-12-23T03:47:25.415Z,1000.10
2023-12-23T03:48:25.456Z,1000.07
2023-12-23T03:49:25.405Z,1000.03
2023-12-23T03:50:25.475Z,1000.07
2023-12-23T03:51:25.453Z,1000.07
2023-12-23T03:52:25.372Z,1000.05
2023-12-23T03:53:25.378Z,999.98
2023-12-23T03:54:25.344Z,999.99
2023-12-23T03:55:25.431Z,999.96
2023-12-23T03:56:25.326Z,999.92
2023-12-23T03:57:25.310Z,999.91
2023-12-23T03:58:25.400Z,999.87
2023-12-23T03:59:25.363Z,999.86
2023-12-23T04:00:25.294Z,999.88
2023-12-23T04:01:25.340Z,999.84
2023-12-23T04:02:25.342Z,999.80
2023-12-23T04:03:25.292Z,999.81
2023-12-23T04:04:25.248Z,999.77
2023-12-23T04:05:25.315Z,999.77
2023-12-23T04:06:25.297Z,999.76
2023-12-23T04:07:25.213Z,999.75
2023-12-23T04:08:25.314Z,999.70
2023-12-23T04:09:25.190Z,999.73
2023-12-23T04:10:25.247Z,999.60
2023-12-23T04:11:25.186Z,999.60
2023-12-23T04:12:25.162Z,999.54
2023-12-23T04:13:25.144Z,999.52
2023-12-23T04:14:25.191Z,999.57
2023-12-23T04:15:25.176Z,999.44
2023-12-23T04:16:25.305Z,999.50
2023-12-23T04:17:25.226Z,999.35
2023-12-23T04:18:25.229Z,999.40
2023-12-23T04:19:25.081Z,999.45
2023-12-23T04:20:25.092Z,999.41
2023-12-23T04:21:25.060Z,999.39
2023-12-23T04:22:25.153Z,999.35
2023-12-23T04:23:25.155Z,999.30
2023-12-23T04:24:25.051Z,999.37
2023-12-23T04:25:25.044Z,999.27
2023-12-23T04:26:25.042Z,999.28
2023-12-23T04:27:25.078Z,999.22
2023-12-23T04:28:25.018Z,999.17
2023-12-23T04:29:25.126Z,999.19
2023-12-23T04:30:25.183Z,999.00
2023-12-23T04:31:25.110Z,999.10
2023-12-23T04:32:25.145Z,999.16
2023-12-23T04:33:25.057Z,999.07
2023-12-23T04:34:25.030Z,999.05
2023-12-23T04:35:25.052Z,999.15
2023-12-23T04:36:24.907Z,999.07
2023-12-23T04:37:24.909Z,999.06
2023-12-23T04:38:24.895Z,999.00
2023-12-23T04:39:24.879Z,998.91
2023-12-23T04:40:24.925Z,998.91
2023-12-23T04:41:25.057Z,998.86
2023-12-23T04:42:24.835Z,998.93
2023-12-23T04:43:24.928Z,998.89
2023-12-23T04:44:24.903Z,998.91
2023-12-23T04:45:24.808Z,998.97
2023-12-23T04:46:24.797Z,998.97
2023-12-23T04:47:24.870Z,998.91
2023-12-23T04:48:24.890Z,998.94
2023-12-23T04:49:24.762Z,999.00
2023-12-23T04:50:24.928Z,998.99
2023-12-23T04:51:24.753Z,999.00
2023-12-23T04:52:24.742Z,999.04
2023-12-23T04:53:24.842Z,998.96
2023-12-23T04:54:24.720Z,998.98
2023-12-23T04:55:24.689Z,998.96
2023-12-23T04:56:24.863Z,999.13
2023-12-23T04:57:24.677Z,998.92
2023-12-23T04:58:24.673Z,998.99
2023-12-23T04:59:24.699Z,998.98
2023-12-23T05:00:24.655Z,998.93
2023-12-23T05:01:24.822Z,998.88
2023-12-23T05:02:24.670Z,998.90
2023-12-23T05:03:24.742Z,998.83
2023-12-23T05:04:24.691Z,998.87
2023-12-23T05:05:24.645Z,998.81
2023-12-23T05:06:24.695Z,998.87
2023-12-23T05:07:24.643Z,998.75
2023-12-23T05:08:24.681Z,998.72
2023-12-23T05:09:24.618Z,998.83
2023-12-23T05:10:24.547Z,998.70
2023-12-23T05:11:24.623Z,998.76
2023-12-23T05:12:24.622Z,998.76
2023-12-23T05:13:24.599Z,998.75
2023-12-23T05:14:24.545Z,998.62
2023-12-23T05:15:24.481Z,998.59
2023-12-23T05:16:24.554Z,998.40
2023-12-23T05:17:24.621Z,998.66
2023-12-23T05:18:24.602Z,998.73
2023-12-23T05:19:24.443Z,998.57
2023-12-23T05:20:24.578Z,998.86
2023-12-23T05:21:24.437Z,998.72
2023-12-23T05:22:24.488Z,998.69
2023-12-23T05:23:24.435Z,998.69
2023-12-23T05:24:24.440Z,998.53
2023-12-23T05:25:24.368Z,998.66
2023-12-23T05:26:24.499Z,998.61
2023-12-23T05:27:24.354Z,998.66
2023-12-23T05:28:24.344Z,998.64
2023-12-23T05:29:24.459Z,998.57
2023-12-23T05:30:24.371Z,998.68
2023-12-23T05:31:24.325Z,998.64
2023-12-23T05:32:24.448Z,998.56
2023-12-23T05:33:24.355Z,998.59
2023-12-23T05:34:24.463Z,998.51
2023-12-23T05:35:24.323Z,998.68
2023-12-23T05:36:24.278Z,998.61
2023-12-23T05:37:24.251Z,998.62
2023-12-23T05:38:24.341Z,998.58
2023-12-23T05:39:24.261Z,998.55
2023-12-23T05:40:24.247Z,998.55
2023-12-23T05:41:24.384Z,998.57
2023-12-23T05:42:24.204Z,998.59
2023-12-23T05:43:24.236Z,998.74
2023-12-23T05:44:24.353Z,998.69
2023-12-23T05:45:24.285Z,998.60
2023-12-23T05:46:24.271Z,998.70
2023-12-23T05:47:24.308Z,998.69
2023-12-23T05:48:24.323Z,998.69
2023-12-23T05:49:24.913Z,998.75
2023-12-23T05:50:24.164Z,998.68
2023-12-23T05:51:24.273Z,998.69
2023-12-23T05:52:24.368Z,998.64
2023-12-23T05:53:24.235Z,998.67
2023-12-23T05:54:24.127Z,998.57
2023-12-23T05:55:24.116Z,998.68
2023-12-23T05:56:24.096Z,998.59
2023-12-23T05:57:24.106Z,998.70
2023-12-23T05:58:24.047Z,998.60
2023-12-23T05:59:24.055Z,998.66
2023-12-23T06:00:24.010Z,998.69
2023-12-23T06:01:24.009Z,998.65
2023-12-23T06:02:24.040Z,998.65
2023-12-23T06:03:24.088Z,998.68
2023-12-23T06:04:24.100Z,998.52
2023-12-23T06:05:24.188Z,998.72
2023-12-23T06:06:24.014Z,998.67
2023-12-23T06:07:23.941Z,998.71
2023-12-23T06:08:24.013Z,998.67
2023-12-23T06:09:23.930Z,998.70
2023-12-23T06:10:23.979Z,998.69
2023-12-23T06:11:23.973Z,998.73
2023-12-23T06:12:23.946Z,998.70
2023-12-23T06:13:23.856Z,998.64
2023-12-23T06:14:23.858Z,998.64
2023-12-23T06:15:23.833Z,998.62
2023-12-23T06:16:23.991Z,998.73
2023-12-23T06:17:23.922Z,998.66
2023-12-23T06:18:23.923Z,998.66
2023-12-23T06:19:23.866Z,998.68
2023-12-23T06:20:23.873Z,998.68
2023-12-23T06:21:23.872Z,998.58
2023-12-23T06:22:23.766Z,998.62
2023-12-23T06:23:23.795Z,998.50
2023-12-23T06:24:23.741Z,998.53
2023-12-23T06:25:23.738Z,998.58
2023-12-23T06:26:23.838Z,998.49
2023-12-23T06:27:23.709Z,998.46
2023-12-23T06:28:23.831Z,998.48
2023-12-23T06:29:23.756Z,998.60
2023-12-23T06:30:23.773Z,998.43
2023-12-23T06:31:23.808Z,998.50
2023-12-23T06:32:23.830Z,998.43
2023-12-23T06:33:23.794Z,998.39
2023-12-23T06:34:23.643Z,998.43
2023-12-23T06:35:23.765Z,998.55
2023-12-23T06:36:23.625Z,998.52
2023-12-23T06:37:23.618Z,998.48
2023-12-23T06:38:23.818Z,998.46
2023-12-23T06:39:23.584Z,998.50
2023-12-23T06:40:23.577Z,998.48
2023-12-23T06:41:23.608Z,998.47
2023-12-23T06:42:23.553Z,998.40
2023-12-23T06:43:44.998Z,998.37
2023-12-23T06:44:24.568Z,998.43
2023-12-23T06:45:23.544Z,998.42
2023-12-23T06:46:23.518Z,998.50
2023-12-23T06:47:23.582Z,998.33
2023-12-23T06:48:23.743Z,998.34
2023-12-23T06:49:23.676Z,998.30
2023-12-23T06:50:23.590Z,998.20
2023-12-23T06:51:23.510Z,998.21
2023-12-23T06:52:23.551Z,998.19
2023-12-23T06:53:23.520Z,998.30
2023-12-23T06:54:23.516Z,998.34
2023-12-23T06:55:23.470Z,998.40
2023-12-23T06:56:23.732Z,998.34
2023-12-23T06:57:23.416Z,998.27
2023-12-23T06:58:23.396Z,998.35
2023-12-23T06:59:23.457Z,998.22
2023-12-23T07:00:23.507Z,998.34
2023-12-23T07:01:23.567Z,998.29
2023-12-23T07:02:23.424Z,998.37
2023-12-23T07:03:23.489Z,998.29
2023-12-23T07:04:23.389Z,998.32
2023-12-23T07:05:23.414Z,998.24
2023-12-23T07:06:23.378Z,998.18
2023-12-23T07:07:23.498Z,998.22
2023-12-23T07:08:23.503Z,998.24
2023-12-23T07:09:23.261Z,998.26
2023-12-23T07:10:23.248Z,998.29
2023-12-23T07:11:23.255Z,998.25
2023-12-23T07:12:23.238Z,998.26
2023-12-23T07:13:23.293Z,998.28
2023-12-23T07:14:23.315Z,998.29
2023-12-23T07:15:23.206Z,998.24
2023-12-23T07:16:23.217Z,998.31
2023-12-23T07:17:35.297Z,998.27
2023-12-23T07:18:24.376Z,998.36
2023-12-23T07:19:23.221Z,998.41
2023-12-23T07:20:23.219Z,998.37
2023-12-23T07:21:23.252Z,998.40
2023-12-23T07:22:23.130Z,998.43
2023-12-23T07:23:23.212Z,998.35
2023-12-23T07:24:23.111Z,998.41
2023-12-23T07:25:23.098Z,998.47
2023-12-23T07:26:23.217Z,998.45
2023-12-23T07:27:23.084Z,998.38
2023-12-23T07:28:23.067Z,998.37
2023-12-23T07:29:23.181Z,998.34
2023-12-23T07:30:23.275Z,998.26
2023-12-23T07:31:23.017Z,998.43
2023-12-23T07:32:23.133Z,998.48
2023-12-23T07:33:23.088Z,998.32
2023-12-23T07:34:23.068Z,998.44
2023-12-23T07:35:23.117Z,998.25
2023-12-23T07:36:23.102Z,998.34
2023-12-23T07:37:22.994Z,998.33
2023-12-23T07:38:23.022Z,998.41
2023-12-23T07:39:22.953Z,998.47
2023-12-23T07:40:23.140Z,998.46
2023-12-23T07:41:23.369Z,998.41
2023-12-23T07:42:22.922Z,998.46
2023-12-23T07:43:22.911Z,998.48
2023-12-23T07:44:23.011Z,998.47
2023-12-23T07:45:22.885Z,998.51
2023-12-23T07:46:22.946Z,998.55
2023-12-23T07:47:22.999Z,998.48
2023-12-23T07:48:23.063Z,998.45
2023-12-23T07:49:22.852Z,998.50
2023-12-23T07:50:22.900Z,998.52
2023-12-23T07:51:22.817Z,998.51
2023-12-23T07:52:22.813Z,998.44
2023-12-23T07:53:22.977Z,998.53
2023-12-23T07:54:22.800Z,998.47
2023-12-23T07:55:22.775Z,998.58
2023-12-23T07:56:22.872Z,998.49
2023-12-23T07:57:22.769Z,998.53
2023-12-23T07:58:22.790Z,998.49
2023-12-23T07:59:22.768Z,998.56
2023-12-23T08:00:22.760Z,998.52
2023-12-23T08:01:22.861Z,998.68
2023-12-23T08:02:22.835Z,998.50
2023-12-23T08:03:22.739Z,998.61
2023-12-23T08:04:22.674Z,998.62
2023-12-23T08:05:22.928Z,998.59
2023-12-23T08:06:22.839Z,998.49
2023-12-23T08:07:22.659Z,998.52
2023-12-23T08:08:22.760Z,998.64
2023-12-23T08:09:22.651Z,998.54
2023-12-23T08:10:22.621Z,998.69
2023-12-23T08:11:22.780Z,998.61
2023-12-23T08:12:22.597Z,998.57
2023-12-23T08:13:22.575Z,998.65
2023-12-23T08:14:22.625Z,998.69
2023-12-23T08:15:22.600Z,998.64
2023-12-23T08:16:22.616Z,998.73
2023-12-23T08:17:22.643Z,998.79
2023-12-23T08:18:22.755Z,998.59
2023-12-23T08:19:22.701Z,998.65
2023-12-23T08:20:22.595Z,998.69
2023-12-23T08:21:22.574Z,998.73
2023-12-23T08:22:22.543Z,998.79
2023-12-23T08:23:22.516Z,998.82
2023-12-23T08:24:22.468Z,998.73
2023-12-23T08:25:22.532Z,998.72
2023-12-23T08:26:22.596Z,998.72
2023-12-23T08:27:22.484Z,998.80
2023-12-23T08:28:22.425Z,998.80
2023-12-23T08:29:22.535Z,998.79
2023-12-23T08:30:22.445Z,998.99
2023-12-23T08:31:22.399Z,998.56
2023-12-23T08:32:22.606Z,998.81
2023-12-23T08:33:22.426Z,998.81
2023-12-23T08:34:22.763Z,998.66
2023-12-23T08:35:22.451Z,998.83
2023-12-23T08:36:22.329Z,998.79
2023-12-23T08:37:22.356Z,998.80
2023-12-23T08:38:22.344Z,998.95
2023-12-23T08:39:22.306Z,998.76
2023-12-23T08:40:22.404Z,998.89
2023-12-23T08:41:22.402Z,998.91
2023-12-23T08:42:22.272Z,998.84
2023-12-23T08:43:22.279Z,998.91
2023-12-23T08:44:22.529Z,998.84
2023-12-23T08:45:22.249Z,998.96
2023-12-23T08:46:22.328Z,998.90
2023-12-23T08:47:22.271Z,998.89
2023-12-23T08:48:22.360Z,998.94
2023-12-23T08:49:22.266Z,998.88
2023-12-23T08:50:22.230Z,998.86
2023-12-23T08:51:22.186Z,998.94
2023-12-23T08:52:22.183Z,998.48
2023-12-23T08:53:22.192Z,998.92
2023-12-23T08:54:22.139Z,998.89
2023-12-23T08:55:22.169Z,998.82
2023-12-23T08:56:22.161Z,998.93
2023-12-23T08:57:22.131Z,998.95
2023-12-23T08:58:22.109Z,998.82
2023-12-23T08:59:22.123Z,998.79
2023-12-23T09:00:22.195Z,998.93
2023-12-23T09:01:22.063Z,998.97
2023-12-23T09:02:24.461Z,998.97
2023-12-23T09:03:22.082Z,999.00
2023-12-23T09:04:22.037Z,998.94
2023-12-23T09:05:22.088Z,998.88
2023-12-23T09:06:22.207Z,998.96
2023-12-23T09:07:22.147Z,998.99
2023-12-23T09:08:22.080Z,998.91
2023-12-23T09:09:21.974Z,998.95
2023-12-23T09:10:21.965Z,999.07
2023-12-23T09:11:22.074Z,999.00
2023-12-23T09:12:21.945Z,999.06
2023-12-23T09:13:21.966Z,999.04
2023-12-23T09:14:22.000Z,999.08
2023-12-23T09:15:21.915Z,999.04
2023-12-23T09:16:21.911Z,999.00
2023-12-23T09:17:22.067Z,999.10
2023-12-23T09:18:21.978Z,999.09
2023-12-23T09:19:21.929Z,999.29
2023-12-23T09:20:21.944Z,999.09
2023-12-23T09:21:21.867Z,999.18
2023-12-23T09:22:21.856Z,999.10
2023-12-23T09:23:21.958Z,999.06
2023-12-23T09:24:21.829Z,999.15
2023-12-23T09:25:21.845Z,999.08
2023-12-23T09:26:21.873Z,999.14
2023-12-23T09:27:21.824Z,999.10
2023-12-23T09:28:21.796Z,999.08
2023-12-23T09:29:21.816Z,999.16
2023-12-23T09:30:21.793Z,999.02
2023-12-23T09:31:21.783Z,999.23
2023-12-23T09:32:21.830Z,999.07
2023-12-23T09:33:21.753Z,999.05
2023-12-23T09:34:21.769Z,999.11
2023-12-23T09:35:21.764Z,999.15
2023-12-23T09:36:21.702Z,999.11
2023-12-23T09:37:21.779Z,999.05
2023-12-23T09:38:21.768Z,999.13
2023-12-23T09:39:21.665Z,999.12
2023-12-23T09:40:21.662Z,999.10
2023-12-23T09:41:21.913Z,999.33
2023-12-23T09:42:24.136Z,999.24
2023-12-23T09:43:21.648Z,999.19
2023-12-23T09:44:21.628Z,999.21
2023-12-23T09:45:21.616Z,999.15
2023-12-23T09:46:21.601Z,999.22
2023-12-23T09:47:21.754Z,999.24
2023-12-23T09:48:21.767Z,999.29
2023-12-23T09:49:21.713Z,999.28
2023-12-23T09:50:21.558Z,999.17
2023-12-23T09:51:21.620Z,999.27
2023-12-23T09:52:21.640Z,999.20
2023-12-23T09:53:21.583Z,999.30
2023-12-23T09:54:21.560Z,999.24
2023-12-23T09:55:21.572Z,999.24
2023-12-23T09:56:21.572Z,999.20
2023-12-23T09:57:21.495Z,999.23
2023-12-23T09:58:21.510Z,999.26
2023-12-23T09:59:21.612Z,999.28
2023-12-23T10:00:21.442Z,999.28
2023-12-23T10:01:21.574Z,999.28
2023-12-23T10:02:21.488Z,999.23
2023-12-23T10:03:21.518Z,999.26
2023-12-23T10:04:21.393Z,999.25
2023-12-23T10:05:21.546Z,999.38
2023-12-23T10:06:22.623Z,999.47
2023-12-23T10:07:21.381Z,999.30
2023-12-23T10:08:21.423Z,999.36
2023-12-23T10:09:21.476Z,999.41
2023-12-23T10:10:21.351Z,999.42
2023-12-23T10:11:21.533Z,999.31
2023-12-23T10:12:21.384Z,999.38
2023-12-23T10:13:21.315Z,999.36
2023-12-23T10:14:21.392Z,999.29
2023-12-23T10:15:21.289Z,999.28
2023-12-23T10:16:21.440Z,999.42
2023-12-23T10:17:21.404Z,999.31
2023-12-23T10:18:21.434Z,999.51
2023-12-23T10:19:21.382Z,999.35
2023-12-23T10:20:21.298Z,999.32
2023-12-23T10:21:21.225Z,999.44
2023-12-23T10:22:21.229Z,999.30
2023-12-23T10:23:21.255Z,999.36
2023-12-23T10:24:21.289Z,999.42
2023-12-23T10:25:21.196Z,999.41
2023-12-23T10:26:21.244Z,999.51
2023-12-23T10:27:21.241Z,999.44
2023-12-23T10:28:21.159Z,999.48
2023-12-23T10:29:21.183Z,999.34
2023-12-23T10:30:21.245Z,999.45
2023-12-23T10:31:21.114Z,999.53
2023-12-23T10:32:21.185Z,999.41
2023-12-23T10:33:21.328Z,999.41
2023-12-23T10:34:21.129Z,999.35
2023-12-23T10:35:21.152Z,999.42
2023-12-23T10:36:21.051Z,999.38
2023-12-23T10:37:21.073Z,999.40
2023-12-23T10:38:21.104Z,999.36
2023-12-23T10:39:21.076Z,999.40
2023-12-23T10:40:21.114Z,999.39
2023-12-23T10:41:21.117Z,999.28
2023-12-23T10:42:21.115Z,999.34
2023-12-23T10:43:20.979Z,999.37
2023-12-23T10:44:21.182Z,999.37
2023-12-23T10:45:20.987Z,999.34
2023-12-23T10:46:20.956Z,999.39
2023-12-23T10:47:21.221Z,999.46
2023-12-23T10:48:21.082Z,999.43
2023-12-23T10:49:20.969Z,999.50
2023-12-23T10:50:20.972Z,999.54
2023-12-23T10:51:21.069Z,999.29
2023-12-23T10:52:20.943Z,999.37
2023-12-23T10:53:21.029Z,999.43
2023-12-23T10:54:20.865Z,999.47
2023-12-23T10:55:20.870Z,999.44
2023-12-23T10:56:20.885Z,999.38
2023-12-23T10:57:20.849Z,999.47
2023-12-23T10:58:20.884Z,999.45
2023-12-23T10:59:20.937Z,999.55
2023-12-23T11:00:20.786Z,999.57
2023-12-23T11:01:20.784Z,999.50
2023-12-23T11:02:20.928Z,999.55
2023-12-23T11:03:20.821Z,999.56
2023-12-23T11:04:20.798Z,999.54
2023-12-23T11:05:20.795Z,999.46
2023-12-23T11:06:20.835Z,999.50
2023-12-23T11:07:20.785Z,999.52
2023-12-23T11:08:20.819Z,999.23
2023-12-23T11:09:20.697Z,999.51
2023-12-23T11:10:20.696Z,999.43
2023-12-23T11:11:20.750Z,999.49
2023-12-23T11:12:20.701Z,999.46
2023-12-23T11:13:20.668Z,999.42
2023-12-23T11:14:20.663Z,999.47
2023-12-23T11:15:20.709Z,999.54
2023-12-23T11:16:20.630Z,999.62
2023-12-23T11:17:20.727Z,999.67
2023-12-23T11:18:20.691Z,999.55
2023-12-23T11:19:20.718Z,999.54
2023-12-23T11:20:20.644Z,999.59
2023-12-23T11:21:20.614Z,999.54
2023-12-23T11:22:20.599Z,999.62
2023-12-23T11:23:20.598Z,999.55
2023-12-23T11:24:20.541Z,999.67
2023-12-23T11:25:20.617Z,999.73
2023-12-23T11:26:20.686Z,999.64
2023-12-23T11:27:20.513Z,999.62
2023-12-23T11:28:20.579Z,999.63
2023-12-23T11:29:20.509Z,999.68
2023-12-23T11:30:20.501Z,999.75
2023-12-23T11:31:20.455Z,999.66
2023-12-23T11:32:20.534Z,999.72
2023-12-23T11:33:20.609Z,999.68
2023-12-23T11:34:20.436Z,999.80
2023-12-23T11:35:20.480Z,999.71
2023-12-23T11:36:20.449Z,999.71
2023-12-23T11:37:20.424Z,999.69
2023-12-23T11:38:20.426Z,999.79
2023-12-23T11:39:20.448Z,999.69
2023-12-23T11:40:20.394Z,999.75
2023-12-23T11:41:20.486Z,999.74
2023-12-23T11:42:20.382Z,999.75
2023-12-23T11:43:20.340Z,999.70
2023-12-23T11:44:20.346Z,999.67
2023-12-23T11:45:20.340Z,999.62
2023-12-23T11:46:20.457Z,999.70
2023-12-23T11:47:20.336Z,999.75
2023-12-23T11:48:20.407Z,999.62
2023-12-23T11:49:20.308Z,999.67
2023-12-23T11:50:20.313Z,999.63
2023-12-23T11:51:20.255Z,999.68
2023-12-23T11:52:20.327Z,999.73
2023-12-23T11:53:20.423Z,999.66
2023-12-23T11:54:20.235Z,999.71
2023-12-23T11:55:20.260Z,999.73
2023-12-23T11:56:20.286Z,999.68
2023-12-23T11:57:20.205Z,999.69
2023-12-23T11:58:20.236Z,999.82
2023-12-23T11:59:20.230Z,999.77
2023-12-23T12:00:20.159Z,999.73
2023-12-23T12:01:20.268Z,999.80
2023-12-23T12:02:20.169Z,999.70
2023-12-23T12:03:20.180Z,999.74
2023-12-23T12:04:20.151Z,999.89
2023-12-23T12:05:20.183Z,999.81
2023-12-23T12:06:20.310Z,999.73
2023-12-23T12:07:20.142Z,999.73
2023-12-23T12:08:20.264Z,999.66
2023-12-23T12:09:20.678Z,999.71
2023-12-23T12:10:20.096Z,999.78
2023-12-23T12:11:20.094Z,999.76
2023-12-23T12:12:20.120Z,999.80
2023-12-23T12:13:20.100Z,999.69
2023-12-23T12:14:20.171Z,999.77
2023-12-23T12:15:20.049Z,999.77
2023-12-23T12:16:20.089Z,999.77
2023-12-23T12:17:20.130Z,999.89
2023-12-23T12:18:20.126Z,999.84
2023-12-23T12:19:20.037Z,999.70
2023-12-23T12:20:20.026Z,999.76
2023-12-23T12:21:19.953Z,999.80